sensor_id;sensor_type;location;lat;lon;timestamp;pressure;altitude;pressure_sealevel;temperature;humidity
250;BME280;109;19.806;-70.704;2023-06-04T00:01:14;100729.16;;;25.84;66.48
250;BME280;109;19.806;-70.704;2023-06-04T00:03:40;100728.84;;;25.74;66.61
250;BME280;109;19.806;-70.704;2023-06-04T00:06:07;100732.47;;;25.73;66.78
250;BME280;109;19.806;-70.704;2023-06-04T00:08:33;100739.56;;;25.74;66.21
250;BME280;109;19.806;-70.704;2023-06-04T00:11:00;100742.09;;;25.61;65.49
250;BME280;109;19.806;-70.704;2023-06-04T00:13:27;100749.69;;;25.69;66.54
250;BME280;109;19.806;-70.704;2023-06-04T00:15:53;100735.72;;;25.78;66.59
250;BME280;109;19.806;-70.704;2023-06-04T00:18:20;100743.59;;;25.81;66.96
250;BME280;109;19.806;-70.704;2023-06-04T00:20:46;100764.91;;;25.84;66.74
250;BME280;109;19.806;-70.704;2023-06-04T00:23:13;100762.47;;;25.79;67.29
250;BME280;109;19.806;-70.704;2023-06-04T00:25:39;100758.13;;;25.77;66.96
250;BME280;109;19.806;-70.704;2023-06-04T00:28:06;100753.94;;;25.73;67.46
250;BME280;109;19.806;-70.704;2023-06-04T00:30:32;100756.00;;;25.68;66.94
250;BME280;109;19.806;-70.704;2023-06-04T00:32:59;100765.84;;;25.67;66.62
250;BME280;109;19.806;-70.704;2023-06-04T00:35:25;100765.53;;;25.58;66.97
250;BME280;109;19.806;-70.704;2023-06-04T00:38:06;100776.25;;;25.58;67.15
250;BME280;109;19.806;-70.704;2023-06-04T00:40:39;100781.50;;;25.43;67.05
250;BME280;109;19.806;-70.704;2023-06-04T00:43:06;100784.69;;;25.50;67.06
250;BME280;109;19.806;-70.704;2023-06-04T00:45:39;100789.63;;;25.42;65.47
250;BME280;109;19.806;-70.704;2023-06-04T00:48:06;100802.84;;;25.29;65.45
250;BME280;109;19.806;-70.704;2023-06-04T00:50:39;100806.75;;;25.39;65.06
250;BME280;109;19.806;-70.704;2023-06-04T00:53:05;100811.00;;;25.43;65.29
250;BME280;109;19.806;-70.704;2023-06-04T00:55:38;100807.00;;;25.51;64.78
250;BME280;109;19.806;-70.704;2023-06-04T00:58:05;100803.03;;;25.42;65.20
250;BME280;109;19.806;-70.704;2023-06-04T01:00:39;100799.75;;;25.53;65.90
250;BME280;109;19.806;-70.704;2023-06-04T01:03:09;100810.22;;;25.57;65.40
250;BME280;109;19.806;-70.704;2023-06-04T01:06:19;100815.81;;;25.53;65.05
250;BME280;109;19.806;-70.704;2023-06-04T01:08:57;100815.84;;;25.68;65.73
250;BME280;109;19.806;-70.704;2023-06-04T01:11:35;100816.06;;;25.79;66.08
250;BME280;109;19.806;-70.704;2023-06-04T01:14:09;100806.88;;;25.85;66.21
250;BME280;109;19.806;-70.704;2023-06-04T01:16:39;100804.97;;;25.87;65.68
250;BME280;109;19.806;-70.704;2023-06-04T01:22:44;100811.16;;;25.72;66.01
250;BME280;109;19.806;-70.704;2023-06-04T01:25:27;100803.63;;;25.63;65.86
250;BME280;109;19.806;-70.704;2023-06-04T01:28:10;100816.00;;;25.65;65.67
250;BME280;109;19.806;-70.704;2023-06-04T01:30:45;100814.63;;;25.74;66.15
250;BME280;109;19.806;-70.704;2023-06-04T01:33:18;100819.22;;;25.72;65.69
250;BME280;109;19.806;-70.704;2023-06-04T01:35:52;100817.41;;;25.72;65.88
250;BME280;109;19.806;-70.704;2023-06-04T01:38:39;100807.97;;;25.65;65.92
250;BME280;109;19.806;-70.704;2023-06-04T01:41:13;100813.84;;;25.72;65.99
250;BME280;109;19.806;-70.704;2023-06-04T01:43:39;100822.22;;;25.66;66.14
250;BME280;109;19.806;-70.704;2023-06-04T01:46:13;100822.38;;;25.63;66.27
250;BME280;109;19.806;-70.704;2023-06-04T01:48:39;100825.19;;;25.61;66.64
250;BME280;109;19.806;-70.704;2023-06-04T01:51:13;100823.78;;;25.70;66.06
250;BME280;109;19.806;-70.704;2023-06-04T01:53:39;100828.53;;;25.65;66.32
250;BME280;109;19.806;-70.704;2023-06-04T01:56:20;100829.06;;;25.56;66.08
250;BME280;109;19.806;-70.704;2023-06-04T01:58:53;100830.09;;;25.53;65.83
250;BME280;109;19.806;-70.704;2023-06-04T02:01:21;100829.69;;;25.61;66.25
250;BME280;109;19.806;-70.704;2023-06-04T02:03:53;100833.81;;;25.66;65.90
250;BME280;109;19.806;-70.704;2023-06-04T02:06:20;100842.63;;;25.53;66.24
250;BME280;109;19.806;-70.704;2023-06-04T02:08:54;100850.22;;;25.44;66.33
250;BME280;109;19.806;-70.704;2023-06-04T02:11:20;100868.03;;;25.45;66.23
250;BME280;109;19.806;-70.704;2023-06-04T02:13:53;100867.19;;;25.45;66.29
250;BME280;109;19.806;-70.704;2023-06-04T02:16:19;100867.19;;;25.45;66.45
250;BME280;109;19.806;-70.704;2023-06-04T02:18:53;100868.28;;;25.41;65.85
250;BME280;109;19.806;-70.704;2023-06-04T02:21:19;100871.22;;;25.36;65.78
250;BME280;109;19.806;-70.704;2023-06-04T02:24:00;100880.09;;;25.37;66.18
250;BME280;109;19.806;-70.704;2023-06-04T02:26:33;100882.97;;;25.50;65.81
250;BME280;109;19.806;-70.704;2023-06-04T02:28:59;100885.84;;;25.47;65.54
250;BME280;109;19.806;-70.704;2023-06-04T02:31:32;100894.06;;;25.43;65.95
250;BME280;109;19.806;-70.704;2023-06-04T02:33:59;100894.28;;;25.39;65.80
250;BME280;109;19.806;-70.704;2023-06-04T02:36:32;100879.94;;;25.40;66.00
250;BME280;109;19.806;-70.704;2023-06-04T02:39:19;100882.78;;;25.37;65.69
250;BME280;109;19.806;-70.704;2023-06-04T02:41:53;100890.31;;;25.30;65.15
250;BME280;109;19.806;-70.704;2023-06-04T02:44:19;100887.16;;;25.22;65.49
250;BME280;109;19.806;-70.704;2023-06-04T02:46:53;100881.25;;;25.16;66.10
250;BME280;109;19.806;-70.704;2023-06-04T02:49:19;100869.75;;;25.14;66.51
250;BME280;109;19.806;-70.704;2023-06-04T02:51:53;100872.75;;;25.07;65.77
250;BME280;109;19.806;-70.704;2023-06-04T02:54:19;100866.94;;;24.99;65.70
250;BME280;109;19.806;-70.704;2023-06-04T02:56:53;100862.91;;;25.08;66.33
250;BME280;109;19.806;-70.704;2023-06-04T02:59:19;100871.91;;;25.07;66.12
250;BME280;109;19.806;-70.704;2023-06-04T03:01:53;100873.78;;;25.05;65.74
250;BME280;109;19.806;-70.704;2023-06-04T03:04:20;100881.97;;;25.02;65.41
250;BME280;109;19.806;-70.704;2023-06-04T03:06:53;100883.88;;;25.00;65.85
250;BME280;109;19.806;-70.704;2023-06-04T03:09:32;100876.38;;;25.06;65.83
250;BME280;109;19.806;-70.704;2023-06-04T03:12:00;100875.25;;;25.10;65.63
250;BME280;109;19.806;-70.704;2023-06-04T03:14:41;100865.09;;;25.17;65.74
250;BME280;109;19.806;-70.704;2023-06-04T03:17:15;100870.53;;;25.16;66.18
250;BME280;109;19.806;-70.704;2023-06-04T03:19:41;100873.94;;;25.02;66.27
250;BME280;109;19.806;-70.704;2023-06-04T03:22:15;100878.59;;;24.98;65.92
250;BME280;109;19.806;-70.704;2023-06-04T03:24:41;100886.81;;;24.95;66.01
250;BME280;109;19.806;-70.704;2023-06-04T03:27:15;100882.78;;;24.87;66.42
250;BME280;109;19.806;-70.704;2023-06-04T03:29:42;100895.47;;;24.83;65.98
250;BME280;109;19.806;-70.704;2023-06-04T03:32:17;100901.13;;;24.77;66.38
250;BME280;109;19.806;-70.704;2023-06-04T03:34:44;100904.69;;;24.78;66.52
250;BME280;109;19.806;-70.704;2023-06-04T03:37:17;100902.78;;;24.80;66.60
250;BME280;109;19.806;-70.704;2023-06-04T03:39:56;100913.44;;;24.81;66.44
250;BME280;109;19.806;-70.704;2023-06-04T03:42:23;100904.59;;;24.79;66.73
250;BME280;109;19.806;-70.704;2023-06-04T03:44:57;100897.38;;;24.81;66.70
250;BME280;109;19.806;-70.704;2023-06-04T03:47:26;100896.56;;;24.79;66.87
250;BME280;109;19.806;-70.704;2023-06-04T03:50:01;100910.69;;;24.83;66.61
250;BME280;109;19.806;-70.704;2023-06-04T03:52:28;100908.94;;;24.82;66.73
250;BME280;109;19.806;-70.704;2023-06-04T03:55:02;100901.06;;;24.79;66.72
250;BME280;109;19.806;-70.704;2023-06-04T03:57:37;100898.59;;;24.74;66.75
250;BME280;109;19.806;-70.704;2023-06-04T04:00:15;100893.41;;;24.71;66.55
250;BME280;109;19.806;-70.704;2023-06-04T04:02:47;100892.63;;;24.69;66.73
250;BME280;109;19.806;-70.704;2023-06-04T04:05:25;100890.88;;;24.68;66.62
250;BME280;109;19.806;-70.704;2023-06-04T04:07:58;100890.94;;;24.66;66.57
250;BME280;109;19.806;-70.704;2023-06-04T04:10:28;100903.47;;;24.66;66.75
250;BME280;109;19.806;-70.704;2023-06-04T04:13:03;100906.22;;;24.64;66.17
250;BME280;109;19.806;-70.704;2023-06-04T04:15:33;100896.38;;;24.65;66.34
250;BME280;109;19.806;-70.704;2023-06-04T04:18:07;100896.38;;;24.65;66.42
250;BME280;109;19.806;-70.704;2023-06-04T04:20:35;100884.50;;;24.70;66.16
250;BME280;109;19.806;-70.704;2023-06-04T04:23:10;100886.81;;;24.78;66.02
250;BME280;109;19.806;-70.704;2023-06-04T04:25:39;100891.00;;;24.84;66.00
250;BME280;109;19.806;-70.704;2023-06-04T04:28:14;100875.44;;;24.73;66.04
250;BME280;109;19.806;-70.704;2023-06-04T04:30:41;100885.22;;;24.74;66.12
250;BME280;109;19.806;-70.704;2023-06-04T04:33:15;100881.47;;;24.78;66.02
250;BME280;109;19.806;-70.704;2023-06-04T04:35:45;100873.50;;;24.77;66.57
250;BME280;109;19.806;-70.704;2023-06-04T04:38:20;100875.22;;;24.78;66.18
250;BME280;109;19.806;-70.704;2023-06-04T04:41:04;100873.19;;;24.83;66.26
250;BME280;109;19.806;-70.704;2023-06-04T04:43:32;100871.63;;;24.79;66.62
250;BME280;109;19.806;-70.704;2023-06-04T04:46:20;100863.00;;;24.72;66.80
250;BME280;109;19.806;-70.704;2023-06-04T04:48:53;100851.22;;;24.76;66.14
250;BME280;109;19.806;-70.704;2023-06-04T04:51:20;100849.97;;;24.83;66.51
250;BME280;109;19.806;-70.704;2023-06-04T04:53:55;100861.69;;;24.81;66.07
250;BME280;109;19.806;-70.704;2023-06-04T04:56:34;100863.97;;;24.71;66.36
250;BME280;109;19.806;-70.704;2023-06-04T04:59:08;100857.63;;;24.72;66.78
250;BME280;109;19.806;-70.704;2023-06-04T05:01:34;100864.69;;;24.74;66.91
250;BME280;109;19.806;-70.704;2023-06-04T05:04:08;100865.47;;;24.77;65.80
250;BME280;109;19.806;-70.704;2023-06-04T05:06:36;100867.19;;;24.78;66.28
250;BME280;109;19.806;-70.704;2023-06-04T05:09:09;100866.88;;;24.66;66.32
250;BME280;109;19.806;-70.704;2023-06-04T05:11:36;100859.44;;;24.71;66.36
250;BME280;109;19.806;-70.704;2023-06-04T05:14:09;100869.47;;;24.68;66.43
250;BME280;109;19.806;-70.704;2023-06-04T05:16:38;100861.13;;;24.74;66.09
250;BME280;109;19.806;-70.704;2023-06-04T05:19:13;100859.16;;;24.78;65.99
250;BME280;109;19.806;-70.704;2023-06-04T05:21:41;100851.28;;;24.74;65.77
250;BME280;109;19.806;-70.704;2023-06-04T05:24:15;100840.28;;;24.81;65.99
250;BME280;109;19.806;-70.704;2023-06-04T05:26:42;100843.97;;;24.78;66.09
250;BME280;109;19.806;-70.704;2023-06-04T05:29:18;100832.31;;;24.79;66.17
250;BME280;109;19.806;-70.704;2023-06-04T05:31:52;100833.03;;;24.83;66.65
250;BME280;109;19.806;-70.704;2023-06-04T05:34:21;100830.38;;;24.83;66.29
250;BME280;109;19.806;-70.704;2023-06-04T05:36:55;100826.91;;;24.81;66.07
250;BME280;109;19.806;-70.704;2023-06-04T05:39:43;100819.09;;;24.76;66.28
250;BME280;109;19.806;-70.704;2023-06-04T05:42:17;100828.00;;;24.77;65.93
250;BME280;109;19.806;-70.704;2023-06-04T05:44:44;100818.00;;;24.80;65.81
250;BME280;109;19.806;-70.704;2023-06-04T05:47:20;100816.88;;;24.67;65.69
250;BME280;109;19.806;-70.704;2023-06-04T05:49:47;100809.41;;;24.56;65.79
250;BME280;109;19.806;-70.704;2023-06-04T05:52:20;100806.41;;;24.62;65.83
250;BME280;109;19.806;-70.704;2023-06-04T05:54:47;100804.44;;;24.66;65.78
250;BME280;109;19.806;-70.704;2023-06-04T05:57:27;100794.59;;;24.66;65.72
250;BME280;109;19.806;-70.704;2023-06-04T06:00:02;100791.72;;;24.54;65.53
250;BME280;109;19.806;-70.704;2023-06-04T06:02:41;100794.13;;;24.58;65.16
250;BME280;109;19.806;-70.704;2023-06-04T06:05:28;100788.78;;;24.58;65.37
250;BME280;109;19.806;-70.704;2023-06-04T06:08:02;100788.78;;;24.58;65.50
250;BME280;109;19.806;-70.704;2023-06-04T06:10:29;100789.63;;;24.59;65.52
250;BME280;109;19.806;-70.704;2023-06-04T06:13:02;100780.84;;;24.57;65.35
250;BME280;109;19.806;-70.704;2023-06-04T06:15:29;100785.16;;;24.59;65.47
250;BME280;109;19.806;-70.704;2023-06-04T06:18:02;100786.09;;;24.58;65.45
250;BME280;109;19.806;-70.704;2023-06-04T06:20:28;100774.63;;;24.56;65.54
250;BME280;109;19.806;-70.704;2023-06-04T06:23:08;100779.13;;;24.56;65.51
250;BME280;109;19.806;-70.704;2023-06-04T06:25:44;100772.25;;;24.50;65.29
250;BME280;109;19.806;-70.704;2023-06-04T06:28:19;100771.16;;;24.54;65.41
250;BME280;109;19.806;-70.704;2023-06-04T06:30:52;100764.22;;;24.50;65.18
250;BME280;109;19.806;-70.704;2023-06-04T06:33:20;100769.06;;;24.44;65.29
250;BME280;109;19.806;-70.704;2023-06-04T06:35:56;100759.38;;;24.41;65.47
250;BME280;109;19.806;-70.704;2023-06-04T06:38:42;100760.63;;;24.34;65.62
250;BME280;109;19.806;-70.704;2023-06-04T06:41:16;100759.06;;;24.30;65.74
250;BME280;109;19.806;-70.704;2023-06-04T06:43:43;100755.19;;;24.35;65.58
250;BME280;109;19.806;-70.704;2023-06-04T06:46:16;100749.78;;;24.37;65.97
250;BME280;109;19.806;-70.704;2023-06-04T06:48:42;100754.50;;;24.32;65.85
250;BME280;109;19.806;-70.704;2023-06-04T06:51:25;100763.00;;;24.40;65.84
250;BME280;109;19.806;-70.704;2023-06-04T06:53:59;100763.78;;;24.42;65.88
250;BME280;109;19.806;-70.704;2023-06-04T06:56:25;100765.34;;;24.46;66.00
250;BME280;109;19.806;-70.704;2023-06-04T06:58:59;100765.09;;;24.51;66.16
250;BME280;109;19.806;-70.704;2023-06-04T07:01:25;100757.78;;;24.54;65.71
250;BME280;109;19.806;-70.704;2023-06-04T07:03:59;100751.66;;;24.52;65.84
250;BME280;109;19.806;-70.704;2023-06-04T07:06:25;100753.47;;;24.52;65.86
250;BME280;109;19.806;-70.704;2023-06-04T07:08:59;100746.44;;;24.49;65.78
250;BME280;109;19.806;-70.704;2023-06-04T07:11:25;100757.31;;;24.46;66.17
250;BME280;109;19.806;-70.704;2023-06-04T07:13:59;100749.19;;;24.48;66.34
250;BME280;109;19.806;-70.704;2023-06-04T07:16:25;100754.56;;;24.48;65.80
250;BME280;109;19.806;-70.704;2023-06-04T07:18:58;100748.69;;;24.41;65.97
250;BME280;109;19.806;-70.704;2023-06-04T07:21:24;100754.97;;;24.40;66.01
250;BME280;109;19.806;-70.704;2023-06-04T07:23:58;100752.44;;;24.37;66.21
250;BME280;109;19.806;-70.704;2023-06-04T07:26:24;100742.69;;;24.36;65.80
250;BME280;109;19.806;-70.704;2023-06-04T07:28:59;100744.50;;;24.35;66.11
250;BME280;109;19.806;-70.704;2023-06-04T07:31:25;100743.63;;;24.35;65.83
250;BME280;109;19.806;-70.704;2023-06-04T07:33:58;100752.00;;;24.29;65.80
250;BME280;109;19.806;-70.704;2023-06-04T07:36:24;100748.75;;;24.22;65.96
250;BME280;109;19.806;-70.704;2023-06-04T07:38:58;100752.38;;;24.21;65.75
250;BME280;109;19.806;-70.704;2023-06-04T07:41:25;100749.75;;;24.20;66.31
250;BME280;109;19.806;-70.704;2023-06-04T07:43:59;100752.66;;;24.15;66.10
250;BME280;109;19.806;-70.704;2023-06-04T07:46:25;100749.09;;;24.16;66.28
250;BME280;109;19.806;-70.704;2023-06-04T07:48:59;100753.69;;;24.13;65.89
250;BME280;109;19.806;-70.704;2023-06-04T07:51:32;100748.91;;;24.19;65.89
250;BME280;109;19.806;-70.704;2023-06-04T07:54:05;100744.41;;;24.20;65.94
250;BME280;109;19.806;-70.704;2023-06-04T07:56:31;100747.28;;;24.17;66.04
250;BME280;109;19.806;-70.704;2023-06-04T07:59:05;100750.06;;;24.14;66.11
250;BME280;109;19.806;-70.704;2023-06-04T08:01:31;100748.56;;;24.08;66.06
250;BME280;109;19.806;-70.704;2023-06-04T08:04:05;100747.53;;;24.11;66.21
250;BME280;109;19.806;-70.704;2023-06-04T08:06:31;100739.53;;;24.11;66.25
250;BME280;109;19.806;-70.704;2023-06-04T08:09:06;100746.81;;;24.07;66.49
250;BME280;109;19.806;-70.704;2023-06-04T08:11:35;100752.44;;;24.02;66.40
250;BME280;109;19.806;-70.704;2023-06-04T08:14:08;100754.63;;;24.12;66.10
250;BME280;109;19.806;-70.704;2023-06-04T08:16:34;100756.44;;;24.11;66.39
250;BME280;109;19.806;-70.704;2023-06-04T08:19:07;100755.28;;;24.17;66.38
250;BME280;109;19.806;-70.704;2023-06-04T08:21:34;100748.91;;;24.19;66.27
250;BME280;109;19.806;-70.704;2023-06-04T08:24:08;100744.78;;;24.12;66.25
250;BME280;109;19.806;-70.704;2023-06-04T08:26:35;100751.41;;;24.05;66.28
250;BME280;109;19.806;-70.704;2023-06-04T08:29:08;100744.34;;;24.04;66.27
250;BME280;109;19.806;-70.704;2023-06-04T08:31:34;100745.88;;;24.08;66.10
250;BME280;109;19.806;-70.704;2023-06-04T08:34:08;100749.94;;;24.17;65.77
250;BME280;109;19.806;-70.704;2023-06-04T08:36:34;100749.28;;;24.12;65.89
250;BME280;109;19.806;-70.704;2023-06-04T08:39:08;100742.84;;;24.16;65.66
250;BME280;109;19.806;-70.704;2023-06-04T08:42:00;100751.75;;;24.16;65.81
250;BME280;109;19.806;-70.704;2023-06-04T08:44:36;100754.44;;;24.16;65.92
250;BME280;109;19.806;-70.704;2023-06-04T08:47:04;100744.13;;;24.26;66.20
250;BME280;109;19.806;-70.704;2023-06-04T08:49:40;100743.09;;;24.28;65.87
250;BME280;109;19.806;-70.704;2023-06-04T08:52:06;100750.09;;;24.31;65.75
250;BME280;109;19.806;-70.704;2023-06-04T08:54:40;100761.25;;;24.22;66.37
250;BME280;109;19.806;-70.704;2023-06-04T08:57:07;100762.44;;;24.33;65.86
250;BME280;109;19.806;-70.704;2023-06-04T08:59:41;100768.13;;;24.27;65.60
250;BME280;109;19.806;-70.704;2023-06-04T09:02:08;100779.38;;;24.17;65.77
250;BME280;109;19.806;-70.704;2023-06-04T09:04:42;100781.78;;;24.21;65.74
250;BME280;109;19.806;-70.704;2023-06-04T09:07:11;100781.63;;;24.24;65.72
250;BME280;109;19.806;-70.704;2023-06-04T09:09:46;100777.16;;;24.25;66.01
250;BME280;109;19.806;-70.704;2023-06-04T09:12:21;100781.63;;;24.24;66.20
250;BME280;109;19.806;-70.704;2023-06-04T09:14:56;100789.66;;;24.24;66.30
250;BME280;109;19.806;-70.704;2023-06-04T09:17:24;100791.47;;;24.24;66.03
250;BME280;109;19.806;-70.704;2023-06-04T09:19:58;100791.53;;;24.22;66.10
250;BME280;109;19.806;-70.704;2023-06-04T09:22:35;100784.47;;;24.21;66.12
250;BME280;109;19.806;-70.704;2023-06-04T09:25:22;100783.88;;;24.15;66.35
250;BME280;109;19.806;-70.704;2023-06-04T09:28:05;100781.91;;;24.01;66.68
250;BME280;109;19.806;-70.704;2023-06-04T09:30:39;100787.47;;;23.96;66.87
250;BME280;109;19.806;-70.704;2023-06-04T09:33:09;100791.25;;;24.10;66.47
250;BME280;109;19.806;-70.704;2023-06-04T09:35:58;100790.31;;;24.11;66.47
250;BME280;109;19.806;-70.704;2023-06-04T09:38:38;100791.25;;;24.10;66.60
250;BME280;109;19.806;-70.704;2023-06-04T09:41:12;100799.13;;;24.13;66.65
250;BME280;109;19.806;-70.704;2023-06-04T09:43:45;100798.34;;;24.11;66.38
250;BME280;109;19.806;-70.704;2023-06-04T09:46:16;100798.19;;;24.14;66.29
250;BME280;109;19.806;-70.704;2023-06-04T09:48:59;100799.81;;;24.18;66.35
250;BME280;109;19.806;-70.704;2023-06-04T09:51:33;100796.88;;;24.22;66.25
250;BME280;109;19.806;-70.704;2023-06-04T09:54:03;100799.94;;;24.15;66.33
250;BME280;109;19.806;-70.704;2023-06-04T09:56:40;100796.19;;;24.19;66.15
250;BME280;109;19.806;-70.704;2023-06-04T09:59:14;100798.78;;;24.20;66.28
250;BME280;109;19.806;-70.704;2023-06-04T10:01:41;100791.53;;;24.22;66.48
250;BME280;109;19.806;-70.704;2023-06-04T10:04:15;100800.56;;;24.20;66.31
250;BME280;109;19.806;-70.704;2023-06-04T10:06:42;100793.34;;;24.22;66.31
250;BME280;109;19.806;-70.704;2023-06-04T10:09:16;100806.78;;;24.20;66.19
250;BME280;109;19.806;-70.704;2023-06-04T10:11:51;100812.06;;;24.22;66.25
250;BME280;109;19.806;-70.704;2023-06-04T10:14:35;100816.34;;;24.26;66.51
250;BME280;109;19.806;-70.704;2023-06-04T10:17:12;100818.72;;;24.32;66.26
250;BME280;109;19.806;-70.704;2023-06-04T10:19:42;100822.94;;;24.36;66.28
250;BME280;109;19.806;-70.704;2023-06-04T10:22:16;100830.97;;;24.36;66.00
250;BME280;109;19.806;-70.704;2023-06-04T10:24:43;100834.28;;;24.41;66.01
250;BME280;109;19.806;-70.704;2023-06-04T10:27:25;100830.03;;;24.54;65.98
250;BME280;109;19.806;-70.704;2023-06-04T10:29:58;100832.94;;;24.67;65.93
250;BME280;109;19.806;-70.704;2023-06-04T10:32:29;100827.22;;;24.74;65.56
250;BME280;109;19.806;-70.704;2023-06-04T10:35:05;100842.31;;;24.93;65.43
250;BME280;109;19.806;-70.704;2023-06-04T10:37:40;100841.59;;;24.89;65.37
250;BME280;109;19.806;-70.704;2023-06-04T10:43:48;100845.38;;;24.85;65.52
250;BME280;109;19.806;-70.704;2023-06-04T10:46:25;100857.44;;;24.94;65.30
250;BME280;109;19.806;-70.704;2023-06-04T10:49:06;100860.16;;;25.09;64.97
250;BME280;109;19.806;-70.704;2023-06-04T10:51:34;100863.69;;;25.10;64.88
250;BME280;109;19.806;-70.704;2023-06-04T10:54:09;100870.44;;;25.17;64.51
250;BME280;109;19.806;-70.704;2023-06-04T10:56:35;100862.34;;;25.19;64.73
250;BME280;109;19.806;-70.704;2023-06-04T10:59:22;100871.09;;;25.22;65.08
250;BME280;109;19.806;-70.704;2023-06-04T11:01:50;100875.22;;;25.28;64.84
250;BME280;109;19.806;-70.704;2023-06-04T11:04:26;100871.31;;;25.51;65.03
250;BME280;109;19.806;-70.704;2023-06-04T11:07:07;100879.13;;;25.71;64.05
250;BME280;109;19.806;-70.704;2023-06-04T11:09:38;100877.00;;;25.93;63.91
250;BME280;109;19.806;-70.704;2023-06-04T11:12:13;100873.28;;;26.11;63.30
250;BME280;109;19.806;-70.704;2023-06-04T11:14:40;100879.97;;;26.34;62.45
250;BME280;109;19.806;-70.704;2023-06-04T11:17:11;100878.75;;;26.56;62.40
250;BME280;109;19.806;-70.704;2023-06-04T11:19:38;100867.59;;;26.77;61.69
250;BME280;109;19.806;-70.704;2023-06-04T11:22:05;100875.84;;;26.89;61.28
250;BME280;109;19.806;-70.704;2023-06-04T11:24:32;100879.25;;;27.06;60.88
250;BME280;109;19.806;-70.704;2023-06-04T11:26:59;100890.41;;;27.29;60.26
250;BME280;109;19.806;-70.704;2023-06-04T11:29:26;100892.63;;;27.36;59.95
250;BME280;109;19.806;-70.704;2023-06-04T11:31:53;100899.53;;;27.40;60.53
250;BME280;109;19.806;-70.704;2023-06-04T11:34:23;100903.88;;;27.43;60.58
250;BME280;109;19.806;-70.704;2023-06-04T11:36:50;100904.13;;;27.38;60.75
250;BME280;109;19.806;-70.704;2023-06-04T11:39:19;100899.66;;;27.53;60.50
250;BME280;109;19.806;-70.704;2023-06-04T11:41:46;100908.94;;;27.62;60.61
250;BME280;109;19.806;-70.704;2023-06-04T11:44:13;100909.31;;;27.70;60.29
250;BME280;109;19.806;-70.704;2023-06-04T11:46:42;100915.94;;;27.78;59.69
250;BME280;109;19.806;-70.704;2023-06-04T11:49:16;100905.16;;;27.92;59.31
250;BME280;109;19.806;-70.704;2023-06-04T11:51:50;100902.66;;;28.04;59.86
250;BME280;109;19.806;-70.704;2023-06-04T11:54:18;100900.91;;;28.17;58.97
250;BME280;109;19.806;-70.704;2023-06-04T11:56:48;100891.47;;;28.37;58.91
250;BME280;109;19.806;-70.704;2023-06-04T11:59:18;100899.25;;;28.41;58.71
250;BME280;109;19.806;-70.704;2023-06-04T12:01:46;100899.34;;;28.54;58.43
250;BME280;109;19.806;-70.704;2023-06-04T12:04:18;100907.00;;;28.60;57.81
250;BME280;109;19.806;-70.704;2023-06-04T12:06:55;100909.28;;;28.66;57.75
250;BME280;109;19.806;-70.704;2023-06-04T12:09:32;100915.41;;;28.68;57.94
250;BME280;109;19.806;-70.704;2023-06-04T12:12:03;100921.91;;;28.78;57.69
250;BME280;109;19.806;-70.704;2023-06-04T12:14:31;100920.59;;;28.71;58.50
250;BME280;109;19.806;-70.704;2023-06-04T12:17:08;100915.88;;;28.87;58.55
250;BME280;109;19.806;-70.704;2023-06-04T12:19:46;100910.38;;;28.89;58.11
250;BME280;109;19.806;-70.704;2023-06-04T12:22:16;100919.59;;;28.59;57.08
250;BME280;109;19.806;-70.704;2023-06-04T12:25:01;100923.06;;;28.74;57.46
250;BME280;109;19.806;-70.704;2023-06-04T12:27:29;100908.22;;;28.81;57.22
250;BME280;109;19.806;-70.704;2023-06-04T12:30:00;100913.72;;;28.80;56.68
250;BME280;109;19.806;-70.704;2023-06-04T12:32:27;100925.09;;;28.98;56.71
250;BME280;109;19.806;-70.704;2023-06-04T12:34:54;100934.31;;;28.93;56.80
250;BME280;109;19.806;-70.704;2023-06-04T12:37:24;100930.66;;;28.94;57.27
250;BME280;109;19.806;-70.704;2023-06-04T12:39:56;100938.41;;;28.86;56.98
250;BME280;109;19.806;-70.704;2023-06-04T12:42:22;100932.59;;;28.92;57.13
250;BME280;109;19.806;-70.704;2023-06-04T12:44:49;100938.63;;;28.83;57.85
250;BME280;109;19.806;-70.704;2023-06-04T12:47:15;100940.75;;;28.78;57.79
250;BME280;109;19.806;-70.704;2023-06-04T12:49:44;100934.84;;;28.73;57.71
250;BME280;109;19.806;-70.704;2023-06-04T12:52:10;100933.53;;;28.79;57.57
250;BME280;109;19.806;-70.704;2023-06-04T12:54:36;100949.94;;;28.88;57.03
250;BME280;109;19.806;-70.704;2023-06-04T12:57:03;100953.34;;;29.05;56.68
250;BME280;109;19.806;-70.704;2023-06-04T12:59:30;100956.47;;;28.99;56.97
250;BME280;109;19.806;-70.704;2023-06-04T13:01:56;100946.34;;;29.15;56.58
250;BME280;109;19.806;-70.704;2023-06-04T13:04:23;100948.72;;;29.19;56.96
250;BME280;109;19.806;-70.704;2023-06-04T13:06:50;100952.94;;;29.23;57.17
250;BME280;109;19.806;-70.704;2023-06-04T13:09:19;100949.06;;;29.53;57.06
250;BME280;109;19.806;-70.704;2023-06-04T13:11:46;100947.31;;;29.52;56.28
250;BME280;109;19.806;-70.704;2023-06-04T13:14:13;100954.22;;;29.56;55.60
250;BME280;109;19.806;-70.704;2023-06-04T13:16:39;100962.44;;;29.54;56.00
250;BME280;109;19.806;-70.704;2023-06-04T13:19:06;100974.06;;;29.67;56.39
250;BME280;109;19.806;-70.704;2023-06-04T13:21:33;100975.78;;;29.81;55.71
250;BME280;109;19.806;-70.704;2023-06-04T13:24:00;100976.44;;;29.85;55.60
250;BME280;109;19.806;-70.704;2023-06-04T13:26:27;100978.28;;;29.72;55.71
250;BME280;109;19.806;-70.704;2023-06-04T13:28:53;100978.59;;;29.67;55.92
250;BME280;109;19.806;-70.704;2023-06-04T13:31:20;100975.28;;;29.76;55.72
250;BME280;109;19.806;-70.704;2023-06-04T13:33:46;100974.16;;;29.79;55.54
250;BME280;109;19.806;-70.704;2023-06-04T13:36:13;100967.31;;;29.62;55.98
250;BME280;109;19.806;-70.704;2023-06-04T13:38:39;100969.66;;;29.54;56.87
250;BME280;109;19.806;-70.704;2023-06-04T13:41:08;100977.75;;;29.54;56.25